sensor_id;sensor_type;location;lat;lon;timestamp;pressure;altitude;pressure_sealevel;temperature;humidity
10587;BME280;5341;47.606;7.576;2023-05-14T00:00:02;98740.19;;;17.11;61.01
10587;BME280;5341;47.606;7.576;2023-05-14T00:02:33;98740.63;;;17.08;60.94
10587;BME280;5341;47.606;7.576;2023-05-14T00:05:01;98740.84;;;17.06;60.90
10587;BME280;5341;47.606;7.576;2023-05-14T00:07:29;98732.97;;;17.05;60.84
10587;BME280;5341;47.606;7.576;2023-05-14T00:09:57;98742.13;;;17.04;61.08
10587;BME280;5341;47.606;7.576;2023-05-14T00:12:25;98738.59;;;17.03;61.04
10587;BME280;5341;47.606;7.576;2023-05-14T00:14:53;98730.72;;;17.02;60.77
10587;BME280;5341;47.606;7.576;2023-05-14T00:17:20;98725.31;;;17.02;60.78
10587;BME280;5341;47.606;7.576;2023-05-14T00:19:49;98734.25;;;17.02;60.70
10587;BME280;5341;47.606;7.576;2023-05-14T00:22:16;98738.00;;;17.01;60.62
10587;BME280;5341;47.606;7.576;2023-05-14T00:24:44;98728.25;;;17.00;60.80
10587;BME280;5341;47.606;7.576;2023-05-14T00:27:11;98726.59;;;16.99;60.53
10587;BME280;5341;47.606;7.576;2023-05-14T00:29:43;98721.41;;;16.97;60.94
10587;BME280;5341;47.606;7.576;2023-05-14T00:32:13;98724.13;;;16.97;60.66
10587;BME280;5341;47.606;7.576;2023-05-14T00:34:45;98721.66;;;16.96;60.85
10587;BME280;5341;47.606;7.576;2023-05-14T00:37:13;98717.25;;;16.95;60.91
10587;BME280;5341;47.606;7.576;2023-05-14T00:39:44;98719.16;;;16.94;60.71
10587;BME280;5341;47.606;7.576;2023-05-14T00:42:11;98722.91;;;16.93;60.88
10587;BME280;5341;47.606;7.576;2023-05-14T00:44:39;98710.44;;;16.92;61.00
10587;BME280;5341;47.606;7.576;2023-05-14T00:47:06;98719.38;;;16.93;60.42
10587;BME280;5341;47.606;7.576;2023-05-14T00:49:34;98716.91;;;16.91;60.66
10587;BME280;5341;47.606;7.576;2023-05-14T00:52:04;98717.94;;;16.90;60.66
10587;BME280;5341;47.606;7.576;2023-05-14T00:54:33;98704.44;;;16.90;60.62
10587;BME280;5341;47.606;7.576;2023-05-14T00:57:03;98714.44;;;16.90;60.64
10587;BME280;5341;47.606;7.576;2023-05-14T00:59:33;98705.50;;;16.89;60.67
10587;BME280;5341;47.606;7.576;2023-05-14T01:02:01;98712.19;;;16.87;60.95
10587;BME280;5341;47.606;7.576;2023-05-14T01:04:29;98706.78;;;16.87;60.67
10587;BME280;5341;47.606;7.576;2023-05-14T01:07:04;98705.94;;;16.86;60.37
10587;BME280;5341;47.606;7.576;2023-05-14T01:09:48;98708.66;;;16.86;60.81
10587;BME280;5341;47.606;7.576;2023-05-14T01:12:28;98704.31;;;16.85;60.52
10587;BME280;5341;47.606;7.576;2023-05-14T01:15:01;98701.78;;;16.84;60.50
10587;BME280;5341;47.606;7.576;2023-05-14T01:17:32;98707.44;;;16.82;60.83
10587;BME280;5341;47.606;7.576;2023-05-14T01:20:00;98700.16;;;16.83;60.61
10587;BME280;5341;47.606;7.576;2023-05-14T01:22:31;98700.38;;;16.81;60.90
10587;BME280;5341;47.606;7.576;2023-05-14T01:24:58;98700.38;;;16.81;60.48
10587;BME280;5341;47.606;7.576;2023-05-14T01:27:30;98699.56;;;16.81;60.79
10587;BME280;5341;47.606;7.576;2023-05-14T01:30:07;98705.19;;;16.79;60.62
10587;BME280;5341;47.606;7.576;2023-05-14T01:32:36;98699.19;;;16.77;60.45
10587;BME280;5341;47.606;7.576;2023-05-14T01:35:07;98705.41;;;16.78;60.73
10587;BME280;5341;47.606;7.576;2023-05-14T01:37:37;98704.81;;;16.76;60.36
10587;BME280;5341;47.606;7.576;2023-05-14T01:40:07;98702.13;;;16.76;60.43
10587;BME280;5341;47.606;7.576;2023-05-14T01:42:36;98693.41;;;16.74;60.58
10587;BME280;5341;47.606;7.576;2023-05-14T01:45:04;98699.63;;;16.74;60.46
10587;BME280;5341;47.606;7.576;2023-05-14T01:47:32;98694.47;;;16.73;60.36
10587;BME280;5341;47.606;7.576;2023-05-14T01:49:59;98697.38;;;16.71;60.44
10587;BME280;5341;47.606;7.576;2023-05-14T01:52:27;98699.25;;;16.70;60.30
10587;BME280;5341;47.606;7.576;2023-05-14T01:54:56;98692.19;;;16.69;60.49
10587;BME280;5341;47.606;7.576;2023-05-14T01:57:24;98692.19;;;16.69;60.32
10587;BME280;5341;47.606;7.576;2023-05-14T01:59:52;98693.25;;;16.68;60.31
10587;BME280;5341;47.606;7.576;2023-05-14T02:02:19;98681.00;;;16.66;60.34
10587;BME280;5341;47.606;7.576;2023-05-14T02:04:46;98687.22;;;16.66;60.41
10587;BME280;5341;47.606;7.576;2023-05-14T02:07:14;98683.91;;;16.64;60.32
10587;BME280;5341;47.606;7.576;2023-05-14T02:09:41;98682.25;;;16.63;60.49
10587;BME280;5341;47.606;7.576;2023-05-14T02:12:10;98683.09;;;16.64;60.61
10587;BME280;5341;47.606;7.576;2023-05-14T02:14:38;98681.22;;;16.64;60.56
10587;BME280;5341;47.606;7.576;2023-05-14T02:17:05;98679.78;;;16.62;60.84
10587;BME280;5341;47.606;7.576;2023-05-14T02:19:33;98686.00;;;16.62;60.47
10587;BME280;5341;47.606;7.576;2023-05-14T02:22:00;98674.16;;;16.63;60.67
10587;BME280;5341;47.606;7.576;2023-05-14T02:24:28;98676.03;;;16.63;60.85
10587;BME280;5341;47.606;7.576;2023-05-14T02:26:55;98674.38;;;16.62;60.81
10587;BME280;5341;47.606;7.576;2023-05-14T02:29:26;98680.84;;;16.61;60.71
10587;BME280;5341;47.606;7.576;2023-05-14T02:31:53;98682.72;;;16.60;60.69
10587;BME280;5341;47.606;7.576;2023-05-14T02:34:21;98679.19;;;16.60;60.75
10587;BME280;5341;47.606;7.576;2023-05-14T02:36:49;98681.03;;;16.59;60.65
10587;BME280;5341;47.606;7.576;2023-05-14T02:39:16;98672.13;;;16.59;60.74
10587;BME280;5341;47.606;7.576;2023-05-14T02:41:44;98672.56;;;16.56;60.56
10587;BME280;5341;47.606;7.576;2023-05-14T02:44:12;98669.28;;;16.54;60.78
10587;BME280;5341;47.606;7.576;2023-05-14T02:46:41;98671.38;;;16.52;60.70
10587;BME280;5341;47.606;7.576;2023-05-14T02:49:09;98667.84;;;16.51;60.61
10587;BME280;5341;47.606;7.576;2023-05-14T02:51:36;98672.66;;;16.49;60.84
10587;BME280;5341;47.606;7.576;2023-05-14T02:54:03;98675.34;;;16.49;60.82
10587;BME280;5341;47.606;7.576;2023-05-14T02:56:31;98675.34;;;16.49;60.55
10587;BME280;5341;47.606;7.576;2023-05-14T02:58:59;98662.91;;;16.48;60.90
10587;BME280;5341;47.606;7.576;2023-05-14T03:01:27;98663.72;;;16.49;60.82
10587;BME280;5341;47.606;7.576;2023-05-14T03:03:56;98665.59;;;16.48;60.55
10587;BME280;5341;47.606;7.576;2023-05-14T03:06:23;98657.50;;;16.48;60.98
10587;BME280;5341;47.606;7.576;2023-05-14T03:08:51;98667.47;;;16.48;60.51
10587;BME280;5341;47.606;7.576;2023-05-14T03:11:18;98672.00;;;16.47;60.85
10587;BME280;5341;47.606;7.576;2023-05-14T03:13:47;98666.63;;;16.47;60.95
10587;BME280;5341;47.606;7.576;2023-05-14T03:16:15;98670.38;;;16.46;60.57
10587;BME280;5341;47.606;7.576;2023-05-14T03:18:42;98682.22;;;16.45;60.77
10587;BME280;5341;47.606;7.576;2023-05-14T03:21:11;98674.34;;;16.44;61.01
10587;BME280;5341;47.606;7.576;2023-05-14T03:23:38;98679.75;;;16.44;60.80
10587;BME280;5341;47.606;7.576;2023-05-14T03:26:06;98677.28;;;16.42;60.89
10587;BME280;5341;47.606;7.576;2023-05-14T03:28:33;98674.78;;;16.40;60.90
10587;BME280;5341;47.606;7.576;2023-05-14T03:31:01;98675.84;;;16.39;60.96
10587;BME280;5341;47.606;7.576;2023-05-14T03:33:29;98669.84;;;16.37;60.97
10587;BME280;5341;47.606;7.576;2023-05-14T03:35:58;98676.28;;;16.36;60.91
10587;BME280;5341;47.606;7.576;2023-05-14T03:38:26;98679.19;;;16.35;60.67
10587;BME280;5341;47.606;7.576;2023-05-14T03:40:54;98680.88;;;16.36;60.60
10587;BME280;5341;47.606;7.576;2023-05-14T03:43:21;98682.75;;;16.35;61.05
10587;BME280;5341;47.606;7.576;2023-05-14T03:45:49;98681.88;;;16.35;60.84
10587;BME280;5341;47.606;7.576;2023-05-14T03:48:17;98680.88;;;16.36;60.76
10587;BME280;5341;47.606;7.576;2023-05-14T03:50:45;98685.44;;;16.35;60.74
10587;BME280;5341;47.606;7.576;2023-05-14T03:53:13;98686.28;;;16.36;61.02
10587;BME280;5341;47.606;7.576;2023-05-14T03:55:42;98682.75;;;16.35;61.00
10587;BME280;5341;47.606;7.576;2023-05-14T03:58:10;98683.56;;;16.36;60.98
10587;BME280;5341;47.606;7.576;2023-05-14T04:00:40;98687.09;;;16.36;60.84
10587;BME280;5341;47.606;7.576;2023-05-14T04:03:07;98694.38;;;16.36;60.66
10587;BME280;5341;47.606;7.576;2023-05-14T04:05:34;98686.47;;;16.34;60.96
10587;BME280;5341;47.606;7.576;2023-05-14T04:08:02;98694.38;;;16.36;60.66
10587;BME280;5341;47.606;7.576;2023-05-14T04:10:30;98691.84;;;16.34;60.76
10587;BME280;5341;47.606;7.576;2023-05-14T04:13:00;98696.25;;;16.35;60.72
10587;BME280;5341;47.606;7.576;2023-05-14T04:15:31;98688.97;;;16.36;60.96
10587;BME280;5341;47.606;7.576;2023-05-14T04:18:00;98686.47;;;16.34;60.77
10587;BME280;5341;47.606;7.576;2023-05-14T04:20:28;98683.75;;;16.34;60.99
10587;BME280;5341;47.606;7.576;2023-05-14T04:22:56;98693.53;;;16.35;61.16
10587;BME280;5341;47.606;7.576;2023-05-14T04:25:24;98694.56;;;16.34;60.96
10587;BME280;5341;47.606;7.576;2023-05-14T04:27:51;98693.53;;;16.35;60.93
10587;BME280;5341;47.606;7.576;2023-05-14T04:30:23;98701.63;;;16.35;60.72
10587;BME280;5341;47.606;7.576;2023-05-14T04:32:52;98705.16;;;16.36;60.76
10587;BME280;5341;47.606;7.576;2023-05-14T04:35:20;98685.22;;;16.37;60.95
10587;BME280;5341;47.606;7.576;2023-05-14T04:37:49;98683.56;;;16.36;60.79
10587;BME280;5341;47.606;7.576;2023-05-14T04:40:16;98685.22;;;16.37;60.87
10587;BME280;5341;47.606;7.576;2023-05-14T04:42:44;98685.22;;;16.37;60.91
10587;BME280;5341;47.606;7.576;2023-05-14T04:45:11;98688.75;;;16.37;61.15
10587;BME280;5341;47.606;7.576;2023-05-14T04:47:41;98692.25;;;16.38;60.86
10587;BME280;5341;47.606;7.576;2023-05-14T04:50:10;98692.25;;;16.38;61.05
10587;BME280;5341;47.606;7.576;2023-05-14T04:52:38;98697.66;;;16.38;60.98
10587;BME280;5341;47.606;7.576;2023-05-14T04:55:06;98701.19;;;16.38;60.90
10587;BME280;5341;47.606;7.576;2023-05-14T04:57:34;98696.84;;;16.37;61.25
10587;BME280;5341;47.606;7.576;2023-05-14T05:00:02;98694.13;;;16.37;60.88
10587;BME280;5341;47.606;7.576;2023-05-14T05:02:33;98697.66;;;16.38;61.06
10587;BME280;5341;47.606;7.576;2023-05-14T05:05:02;98694.13;;;16.37;61.34
10587;BME280;5341;47.606;7.576;2023-05-14T05:07:30;98704.94;;;16.37;61.05
10587;BME280;5341;47.606;7.576;2023-05-14T05:09:58;98698.72;;;16.37;61.27
10587;BME280;5341;47.606;7.576;2023-05-14T05:12:26;98694.13;;;16.37;61.12
10587;BME280;5341;47.606;7.576;2023-05-14T05:14:55;98703.06;;;16.38;61.34
10587;BME280;5341;47.606;7.576;2023-05-14T05:17:22;98698.50;;;16.38;61.12
10587;BME280;5341;47.606;7.576;2023-05-14T05:19:50;98693.91;;;16.39;61.43
10587;BME280;5341;47.606;7.576;2023-05-14T05:22:19;98691.22;;;16.39;61.27
10587;BME280;5341;47.606;7.576;2023-05-14T05:24:46;98681.25;;;16.39;61.41
10587;BME280;5341;47.606;7.576;2023-05-14T05:27:14;98688.53;;;16.39;61.10
10587;BME280;5341;47.606;7.576;2023-05-14T05:29:42;98683.94;;;16.39;61.36
10587;BME280;5341;47.606;7.576;2023-05-14T05:32:11;98692.88;;;16.40;61.57
10587;BME280;5341;47.606;7.576;2023-05-14T05:34:40;98702.84;;;16.39;61.28
10587;BME280;5341;47.606;7.576;2023-05-14T05:37:09;98697.44;;;16.39;61.45
10587;BME280;5341;47.606;7.576;2023-05-14T05:39:40;98697.44;;;16.39;61.57
10587;BME280;5341;47.606;7.576;2023-05-14T05:42:08;98691.00;;;16.40;61.56
10587;BME280;5341;47.606;7.576;2023-05-14T05:44:35;98685.59;;;16.40;61.68
10587;BME280;5341;47.606;7.576;2023-05-14T05:47:03;98691.81;;;16.41;61.84
10587;BME280;5341;47.606;7.576;2023-05-14T05:49:32;98691.81;;;16.41;61.84
10587;BME280;5341;47.606;7.576;2023-05-14T05:52:01;98699.09;;;16.40;61.69
10587;BME280;5341;47.606;7.576;2023-05-14T05:54:30;98699.09;;;16.40;61.67
10587;BME280;5341;47.606;7.576;2023-05-14T05:57:00;98707.19;;;16.40;61.67
10587;BME280;5341;47.606;7.576;2023-05-14T05:59:28;98700.97;;;16.40;62.19
10587;BME280;5341;47.606;7.576;2023-05-14T06:01:59;98702.84;;;16.39;61.93
10587;BME280;5341;47.606;7.576;2023-05-14T06:04:28;98699.09;;;16.40;62.11
10587;BME280;5341;47.606;7.576;2023-05-14T06:06:55;98694.50;;;16.41;62.41
10587;BME280;5341;47.606;7.576;2023-05-14T06:09:23;98705.91;;;16.43;62.16
10587;BME280;5341;47.606;7.576;2023-05-14T06:11:50;98708.38;;;16.45;62.27
10587;BME280;5341;47.606;7.576;2023-05-14T06:14:20;98708.16;;;16.46;62.02
10587;BME280;5341;47.606;7.576;2023-05-14T06:16:48;98700.06;;;16.46;62.14
10587;BME280;5341;47.606;7.576;2023-05-14T06:19:16;98698.19;;;16.47;62.27
10587;BME280;5341;47.606;7.576;2023-05-14T06:21:43;98706.28;;;16.47;62.07
10587;BME280;5341;47.606;7.576;2023-05-14T06:24:10;98707.09;;;16.47;62.02
10587;BME280;5341;47.606;7.576;2023-05-14T06:26:40;98709.81;;;16.47;62.42
10587;BME280;5341;47.606;7.576;2023-05-14T06:29:08;98706.09;;;16.48;62.26
10587;BME280;5341;47.606;7.576;2023-05-14T06:31:37;98706.91;;;16.49;62.42
10587;BME280;5341;47.606;7.576;2023-05-14T06:34:04;98694.84;;;16.51;62.30
10587;BME280;5341;47.606;7.576;2023-05-14T06:36:32;98705.41;;;16.53;62.21
10587;BME280;5341;47.606;7.576;2023-05-14T06:39:00;98700.63;;;16.55;62.28
10587;BME280;5341;47.606;7.576;2023-05-14T06:41:28;98697.69;;;16.56;62.09
10587;BME280;5341;47.606;7.576;2023-05-14T06:43:55;98706.19;;;16.60;62.10
10587;BME280;5341;47.606;7.576;2023-05-14T06:46:22;98710.53;;;16.61;62.02
10587;BME280;5341;47.606;7.576;2023-05-14T06:48:51;98707.38;;;16.64;62.35
10587;BME280;5341;47.606;7.576;2023-05-14T06:51:18;98709.63;;;16.67;62.17
10587;BME280;5341;47.606;7.576;2023-05-14T06:53:46;98710.25;;;16.69;62.43
10587;BME280;5341;47.606;7.576;2023-05-14T06:56:13;98712.53;;;16.72;62.05
10587;BME280;5341;47.606;7.576;2023-05-14T06:58:40;98705.03;;;16.74;62.25
10587;BME280;5341;47.606;7.576;2023-05-14T07:01:08;98705.03;;;16.74;62.27
10587;BME280;5341;47.606;7.576;2023-05-14T07:03:35;98700.47;;;16.75;62.19
10587;BME280;5341;47.606;7.576;2023-05-14T07:06:04;98703.75;;;16.77;61.96
10587;BME280;5341;47.606;7.576;2023-05-14T07:08:32;98701.88;;;16.77;62.29
10587;BME280;5341;47.606;7.576;2023-05-14T07:11:00;98705.19;;;16.79;61.94
10587;BME280;5341;47.606;7.576;2023-05-14T07:13:28;98706.00;;;16.80;62.42
10587;BME280;5341;47.606;7.576;2023-05-14T07:15:55;98708.25;;;16.83;62.29
10587;BME280;5341;47.606;7.576;2023-05-14T07:18:23;98702.66;;;16.84;62.22
10587;BME280;5341;47.606;7.576;2023-05-14T07:20:50;98699.72;;;16.86;62.19
10587;BME280;5341;47.606;7.576;2023-05-14T07:23:20;98711.72;;;16.90;62.24
10587;BME280;5341;47.606;7.576;2023-05-14T07:25:47;98701.50;;;16.92;61.98
10587;BME280;5341;47.606;7.576;2023-05-14T07:28:15;98704.81;;;16.94;62.38
10587;BME280;5341;47.606;7.576;2023-05-14T07:30:42;98703.56;;;16.96;62.20
10587;BME280;5341;47.606;7.576;2023-05-14T07:33:10;98700.16;;;17.01;62.34
10587;BME280;5341;47.606;7.576;2023-05-14T07:35:37;98703.25;;;17.05;62.95
10587;BME280;5341;47.606;7.576;2023-05-14T07:38:04;98695.53;;;17.08;63.53
10587;BME280;5341;47.606;7.576;2023-05-14T07:40:33;98699.19;;;17.14;64.22
10587;BME280;5341;47.606;7.576;2023-05-14T07:43:00;98701.22;;;17.18;64.08
10587;BME280;5341;47.606;7.576;2023-05-14T07:45:28;98694.09;;;17.24;64.32
10587;BME280;5341;47.606;7.576;2023-05-14T07:47:55;98694.81;;;17.31;64.68
10587;BME280;5341;47.606;7.576;2023-05-14T07:50:23;98690.63;;;17.35;64.49
10587;BME280;5341;47.606;7.576;2023-05-14T07:52:51;98693.69;;;17.39;64.41
10587;BME280;5341;47.606;7.576;2023-05-14T07:55:18;98693.00;;;17.43;64.15
10587;BME280;5341;47.606;7.576;2023-05-14T07:57:47;98689.84;;;17.46;64.26
10587;BME280;5341;47.606;7.576;2023-05-14T08:00:15;98695.03;;;17.48;63.93
10587;BME280;5341;47.606;7.576;2023-05-14T08:02:43;98689.41;;;17.49;63.98
10587;BME280;5341;47.606;7.576;2023-05-14T08:05:10;98685.63;;;17.50;63.82
10587;BME280;5341;47.606;7.576;2023-05-14T08:07:38;98691.88;;;17.51;64.18
10587;BME280;5341;47.606;7.576;2023-05-14T08:10:07;98687.88;;;17.53;64.64
10587;BME280;5341;47.606;7.576;2023-05-14T08:12:34;98688.25;;;17.57;64.25
10587;BME280;5341;47.606;7.576;2023-05-14T08:15:05;98685.09;;;17.60;64.45
10587;BME280;5341;47.606;7.576;2023-05-14T08:17:33;98686.72;;;17.61;64.50
10587;BME280;5341;47.606;7.576;2023-05-14T08:20:00;98683.56;;;17.64;64.30
10587;BME280;5341;47.606;7.576;2023-05-14T08:22:27;98686.03;;;17.66;63.92
10587;BME280;5341;47.606;7.576;2023-05-14T08:24:55;98675.81;;;17.68;64.02
10587;BME280;5341;47.606;7.576;2023-05-14T08:27:22;98681.63;;;17.71;63.88
10587;BME280;5341;47.606;7.576;2023-05-14T08:29:51;98676.47;;;17.70;64.09
10587;BME280;5341;47.606;7.576;2023-05-14T08:32:20;98683.53;;;17.71;64.55
10587;BME280;5341;47.606;7.576;2023-05-14T08:34:47;98683.06;;;17.74;64.21
10587;BME280;5341;47.606;7.576;2023-05-14T08:37:14;98683.78;;;17.81;65.02
10587;BME280;5341;47.606;7.576;2023-05-14T08:39:42;98675.25;;;17.96;66.09
10587;BME280;5341;47.606;7.576;2023-05-14T08:42:11;98676.66;;;18.10;65.24
10587;BME280;5341;47.606;7.576;2023-05-14T08:44:46;98677.59;;;18.15;64.23
10587;BME280;5341;47.606;7.576;2023-05-14T08:47:15;98673.97;;;18.22;64.19
10587;BME280;5341;47.606;7.576;2023-05-14T08:49:46;98673.28;;;18.26;64.07
10587;BME280;5341;47.606;7.576;2023-05-14T08:52:15;98679.50;;;18.27;63.57
10587;BME280;5341;47.606;7.576;2023-05-14T08:54:45;98671.03;;;18.23;63.22
10587;BME280;5341;47.606;7.576;2023-05-14T08:57:16;98672.44;;;18.26;63.66
10587;BME280;5341;47.606;7.576;2023-05-14T08:59:44;98655.28;;;18.32;63.88
10587;BME280;5341;47.606;7.576;2023-05-14T09:02:13;98659.88;;;18.43;63.84
10587;BME280;5341;47.606;7.576;2023-05-14T09:04:42;98651.13;;;18.53;63.75
10587;BME280;5341;47.606;7.576;2023-05-14T09:07:11;98652.44;;;18.62;63.78
10587;BME280;5341;47.606;7.576;2023-05-14T09:09:39;98645.63;;;18.71;63.97
10587;BME280;5341;47.606;7.576;2023-05-14T09:12:07;98638.56;;;18.82;64.15
10587;BME280;5341;47.606;7.576;2023-05-14T09:14:35;98640.28;;;18.99;63.76
10587;BME280;5341;47.606;7.576;2023-05-14T09:17:02;98640.81;;;19.13;63.60
10587;BME280;5341;47.606;7.576;2023-05-14T09:19:30;98632.66;;;19.25;62.92
10587;BME280;5341;47.606;7.576;2023-05-14T09:21:57;98631.91;;;19.41;62.11
10587;BME280;5341;47.606;7.576;2023-05-14T09:24:27;98632.09;;;19.51;61.61
10587;BME280;5341;47.606;7.576;2023-05-14T09:26:56;98637.97;;;19.60;61.39
10587;BME280;5341;47.606;7.576;2023-05-14T09:29:23;98635.19;;;19.72;61.09
10587;BME280;5341;47.606;7.576;2023-05-14T09:31:51;98630.13;;;19.75;61.34
10587;BME280;5341;47.606;7.576;2023-05-14T09:34:23;98627.97;;;19.77;61.37
10587;BME280;5341;47.606;7.576;2023-05-14T09:36:54;98625.25;;;19.77;60.19
10587;BME280;5341;47.606;7.576;2023-05-14T09:39:22;98632.59;;;19.77;59.95
10587;BME280;5341;47.606;7.576;2023-05-14T09:41:51;98631.00;;;19.81;60.75
10587;BME280;5341;47.606;7.576;2023-05-14T09:44:19;98627.56;;;19.85;61.12
10587;BME280;5341;47.606;7.576;2023-05-14T09:46:47;98629.56;;;19.90;61.22
10587;BME280;5341;47.606;7.576;2023-05-14T09:49:14;98622.88;;;19.98;61.23
10587;BME280;5341;47.606;7.576;2023-05-14T09:51:42;98621.16;;;20.08;61.32
10587;BME280;5341;47.606;7.576;2023-05-14T09:54:09;98620.09;;;20.43;59.78
10587;BME280;5341;47.606;7.576;2023-05-14T09:56:37;98619.47;;;20.74;58.96
10587;BME280;5341;47.606;7.576;2023-05-14T09:59:13;98616.28;;;20.83;58.52
10587;BME280;5341;47.606;7.576;2023-05-14T10:01:41;98615.47;;;20.82;56.98
10587;BME280;5341;47.606;7.576;2023-05-14T10:04:10;98616.88;;;20.85;56.71
10587;BME280;5341;47.606;7.576;2023-05-14T10:06:38;98618.56;;;20.91;56.30
10587;BME280;5341;47.606;7.576;2023-05-14T10:09:09;98615.34;;;20.94;56.76
10587;BME280;5341;47.606;7.576;2023-05-14T10:11:41;98611.53;;;20.95;56.92
10587;BME280;5341;47.606;7.576;2023-05-14T10:14:17;98615.47;;;21.04;56.97
10587;BME280;5341;47.606;7.576;2023-05-14T10:16:48;98608.50;;;21.13;56.68
10587;BME280;5341;47.606;7.576;2023-05-14T10:19:17;98612.81;;;21.31;57.03
10587;BME280;5341;47.606;7.576;2023-05-14T10:21:50;98608.31;;;21.42;57.49
10587;BME280;5341;47.606;7.576;2023-05-14T10:24:19;98607.59;;;21.51;57.08
10587;BME280;5341;47.606;7.576;2023-05-14T10:26:47;98596.53;;;21.58;56.46
10587;BME280;5341;47.606;7.576;2023-05-14T10:29:16;98602.81;;;21.63;56.41
10587;BME280;5341;47.606;7.576;2023-05-14T10:31:45;98597.94;;;21.65;56.45
10587;BME280;5341;47.606;7.576;2023-05-14T10:34:32;98599.53;;;21.61;54.87
10587;BME280;5341;47.606;7.576;2023-05-14T10:37:02;98598.91;;;21.54;55.23
10587;BME280;5341;47.606;7.576;2023-05-14T10:39:44;98596.97;;;21.50;55.98
10587;BME280;5341;47.606;7.576;2023-05-14T10:42:12;98591.50;;;21.45;56.68
10587;BME280;5341;47.606;7.576;2023-05-14T10:44:52;98585.97;;;21.40;56.64
10587;BME280;5341;47.606;7.576;2023-05-14T10:47:21;98591.69;;;21.38;57.17
10587;BME280;5341;47.606;7.576;2023-05-14T10:49:51;98585.94;;;21.34;57.33
10587;BME280;5341;47.606;7.576;2023-05-14T10:52:20;98584.53;;;21.32;57.01
10587;BME280;5341;47.606;7.576;2023-05-14T10:54:52;98584.78;;;21.30;56.66
10587;BME280;5341;47.606;7.576;2023-05-14T10:57:22;98587.22;;;21.27;55.65
10587;BME280;5341;47.606;7.576;2023-05-14T10:59:53;98588.28;;;21.26;55.79
10587;BME280;5341;47.606;7.576;2023-05-14T11:02:22;98580.34;;;21.24;56.01
10587;BME280;5341;47.606;7.576;2023-05-14T11:04:57;98583.34;;;21.23;56.15
10587;BME280;5341;47.606;7.576;2023-05-14T11:07:30;98583.59;;;21.21;55.61
10587;BME280;5341;47.606;7.576;2023-05-14T11:10:00;98574.28;;;21.17;55.00
10587;BME280;5341;47.606;7.576;2023-05-14T11:12:29;98575.88;;;21.13;55.64
10587;BME280;5341;47.606;7.576;2023-05-14T11:14:59;98572.88;;;21.10;55.62
10587;BME280;5341;47.606;7.576;2023-05-14T11:17:28;98573.13;;;21.08;55.13
10587;BME280;5341;47.606;7.576;2023-05-14T11:19:57;98569.25;;;21.04;54.93
10587;BME280;5341;47.606;7.576;2023-05-14T11:22:25;98564.31;;;21.01;54.80
10587;BME280;5341;47.606;7.576;2023-05-14T11:24:53;98563.75;;;20.99;54.55
10587;BME280;5341;47.606;7.576;2023-05-14T11:27:20;98559.66;;;20.96;54.32
10587;BME280;5341;47.606;7.576;2023-05-14T11:29:49;98558.59;;;20.97;55.09
10587;BME280;5341;47.606;7.576;2023-05-14T11:32:18;98557.75;;;20.97;55.97
10587;BME280;5341;47.606;7.576;2023-05-14T11:34:46;98562.69;;;21.00;56.31
10587;BME280;5341;47.606;7.576;2023-05-14T11:37:14;98557.56;;;21.03;56.04
10587;BME280;5341;47.606;7.576;2023-05-14T11:39:46;98553.75;;;21.04;55.55
10587;BME280;5341;47.606;7.576;2023-05-14T11:42:14;98552.94;;;21.04;56.13
10587;BME280;5341;47.606;7.576;2023-05-14T11:44:45;98554.00;;;21.03;56.77
10587;BME280;5341;47.606;7.576;2023-05-14T11:47:14;98549.41;;;21.03;57.31
10587;BME280;5341;47.606;7.576;2023-05-14T11:49:42;98543.97;;;21.03;57.28
10587;BME280;5341;47.606;7.576;2023-05-14T11:52:13;98537.69;;;21.03;56.77
10587;BME280;5341;47.606;7.576;2023-05-14T11:54:41;98531.44;;;21.02;56.33
10587;BME280;5341;47.606;7.576;2023-05-14T11:57:10;98527.94;;;21.07;56.57
10587;BME280;5341;47.606;7.576;2023-05-14T11:59:39;98521.19;;;21.10;55.57
10587;BME280;5341;47.606;7.576;2023-05-14T12:02:09;98513.38;;;21.18;54.63
10587;BME280;5341;47.606;7.576;2023-05-14T12:04:36;98511.41;;;21.35;52.54
10587;BME280;5341;47.606;7.576;2023-05-14T12:07:09;98510.56;;;21.62;51.66
10587;BME280;5341;47.606;7.576;2023-05-14T12:09:38;98500.84;;;22.08;51.26
10587;BME280;5341;47.606;7.576;2023-05-14T12:12:09;98500.28;;;22.64;49.23
10587;BME280;5341;47.606;7.576;2023-05-14T12:14:37;98499.78;;;22.77;49.65
10587;BME280;5341;47.606;7.576;2023-05-14T12:17:11;98503.88;;;22.74;50.72
10587;BME280;5341;47.606;7.576;2023-05-14T12:19:40;98501.97;;;22.70;50.91
10587;BME280;5341;47.606;7.576;2023-05-14T12:22:10;98507.41;;;22.70;50.88
10587;BME280;5341;47.606;7.576;2023-05-14T12:24:38;98510.13;;;22.70;50.71
10587;BME280;5341;47.606;7.576;2023-05-14T12:27:06;98492.69;;;22.71;51.16
10587;BME280;5341;47.606;7.576;2023-05-14T12:29:37;98495.69;;;22.69;51.47
10587;BME280;5341;47.606;7.576;2023-05-14T12:32:08;98494.66;;;22.86;50.32
10587;BME280;5341;47.606;7.576;2023-05-14T12:34:36;98490.59;;;22.98;50.79
10587;BME280;5341;47.606;7.576;2023-05-14T12:37:04;98494.72;;;23.06;49.23
10587;BME280;5341;47.606;7.576;2023-05-14T12:39:33;98494.72;;;23.06;49.58
10587;BME280;5341;47.606;7.576;2023-05-14T12:42:01;98490.91;;;23.02;49.24
10587;BME280;5341;47.606;7.576;2023-05-14T12:44:29;98494.16;;;22.99;50.39
10587;BME280;5341;47.606;7.576;2023-05-14T12:46:56;98489.50;;;22.94;48.64
10587;BME280;5341;47.606;7.576;2023-05-14T12:49:23;98476.69;;;22.90;49.74
10587;BME280;5341;47.606;7.576;2023-05-14T12:51:51;98482.66;;;22.87;49.77
10587;BME280;5341;47.606;7.576;2023-05-14T12:54:18;98481.84;;;22.86;47.79
10587;BME280;5341;47.606;7.576;2023-05-14T12:56:47;98475.03;;;22.89;47.50
10587;BME280;5341;47.606;7.576;2023-05-14T12:59:15;98478.34;;;22.91;48.31
10587;BME280;5341;47.606;7.576;2023-05-14T13:01:42;98476.16;;;22.93;46.29
10587;BME280;5341;47.606;7.576;2023-05-14T13:04:10;98470.69;;;22.93;48.39
10587;BME280;5341;47.606;7.576;2023-05-14T13:06:38;98464.44;;;22.92;49.74
10587;BME280;5341;47.606;7.576;2023-05-14T13:09:06;98457.63;;;22.90;50.01
10587;BME280;5341;47.606;7.576;2023-05-14T13:11:34;98455.41;;;22.87;50.10
10587;BME280;5341;47.606;7.576;2023-05-14T13:14:02;98442.31;;;22.84;49.03
10587;BME280;5341;47.606;7.576;2023-05-14T13:16:30;98457.31;;;22.86;48.98